Time;durP1;ratioP1;P1;durP2;ratioP2;P2;SDS_P1;SDS_P2;PMS_P1;PMS_P2;Temp;Humidity;BMP_temperature;BMP_pressure;BME280_temperature;BME280_humidity;BME280_pressure;Samples;Min_cycle;Max_cycle;Signal;HPM_P1;HPM_P2
2021/01/09 00:04:26;;;;;;;6.40;2.95;;;0.20;99.90;;;;;;10351377;28;20501;-52
2021/01/09 00:09:47;;;;;;;8.35;2.28;;;0.10;99.90;;;;;;10354787;28;20092;-52
2021/01/09 00:15:10;;;;;;;3.05;1.52;;;0.10;99.90;;;;;;10360387;28;20038;-52
2021/01/09 00:20:31;;;;;;;5.10;1.70;;;0.10;99.90;;;;;;10359162;28;21031;-52
2021/01/09 00:25:52;;;;;;;3.80;1.55;;;0.10;99.90;;;;;;10355237;28;20141;-52
2021/01/09 00:31:14;;;;;;;4.88;2.28;;;0.10;99.90;;;;;;10362947;28;20115;-52
2021/01/09 00:36:35;;;;;;;3.67;1.77;;;0.10;99.90;;;;;;10359304;28;20171;-52
2021/01/09 00:42:00;;;;;;;4.88;2.22;;;0.10;99.90;;;;;;10365927;28;20379;-52
2021/01/09 00:47:21;;;;;;;3.47;1.33;;;0.10;99.90;;;;;;10373835;28;20042;-52
2021/01/09 00:52:42;;;;;;;5.63;2.30;;;0.00;99.90;;;;;;10359777;28;20061;-52
2021/01/09 00:58:03;;;;;;;10.50;2.38;;;0.00;99.90;;;;;;10353305;28;20061;-52
2021/01/09 01:03:24;;;;;;;5.57;2.33;;;0.10;99.90;;;;;;10355285;28;20581;-52
2021/01/09 01:08:44;;;;;;;8.25;2.42;;;0.00;99.90;;;;;;10354543;28;20171;-52
2021/01/09 01:14:06;;;;;;;5.22;2.00;;;0.10;99.90;;;;;;10358503;28;20179;-52
2021/01/09 01:19:26;;;;;;;7.97;1.65;;;0.10;99.90;;;;;;10360596;28;20034;-51
2021/01/09 01:24:47;;;;;;;5.85;1.58;;;0.10;99.90;;;;;;10362482;28;20661;-51
2021/01/09 01:30:09;;;;;;;7.90;2.90;;;0.10;99.90;;;;;;10371837;28;20120;-51
2021/01/09 01:35:30;;;;;;;4.97;2.13;;;0.00;99.90;;;;;;10371669;28;20069;-51
2021/01/09 01:40:59;;;;;;;2.83;1.30;;;0.00;99.90;;;;;;10359322;28;20053;-51
2021/01/09 01:46:20;;;;;;;;;;;0.00;99.90;;;;;;10362427;28;20549;-51
2021/01/09 01:51:42;;;;;;;3.25;1.13;;;0.00;99.90;;;;;;10360070;28;19922;-51
2021/01/09 01:57:07;;;;;;;3.95;1.50;;;0.00;99.90;;;;;;10374379;28;20045;-51
2021/01/09 02:02:28;;;;;;;4.43;1.60;;;0.00;99.90;;;;;;10362992;28;20555;-51
2021/01/09 02:07:52;;;;;;;2.90;1.50;;;0.00;99.90;;;;;;10361719;28;20045;-51
2021/01/09 02:13:27;;;;;;;5.55;2.22;;;0.00;99.90;;;;;;10361831;28;20053;-51
2021/01/09 02:18:50;;;;;;;4.00;1.85;;;-0.10;99.90;;;;;;10360615;28;20803;-51
2021/01/09 02:24:16;;;;;;;3.60;1.05;;;-0.20;99.90;;;;;;10373624;28;20045;-51
2021/01/09 02:29:47;;;;;;;4.57;1.58;;;-0.30;99.90;;;;;;10360474;28;20038;-51
2021/01/09 02:35:09;;;;;;;3.15;2.28;;;-0.30;99.90;;;;;;10357465;28;20142;-51
2021/01/09 02:40:30;;;;;;;3.97;1.67;;;-0.30;99.90;;;;;;10359748;28;20048;-51
2021/01/09 02:45:51;;;;;;;4.65;2.33;;;-0.30;99.90;;;;;;10375151;28;20080;-51
2021/01/09 02:51:12;;;;;;;4.55;1.45;;;-0.30;99.90;;;;;;10359982;28;20095;-51
2021/01/09 02:56:33;;;;;;;2.45;1.40;;;-0.40;99.90;;;;;;10359737;28;20030;-51
2021/01/09 03:01:54;;;;;;;4.88;1.65;;;-0.40;99.90;;;;;;10358089;28;20038;-51
2021/01/09 03:07:15;;;;;;;3.95;1.75;;;-0.30;99.90;;;;;;10362168;28;20057;-51
2021/01/09 03:12:36;;;;;;;11.00;1.88;;;-0.40;99.90;;;;;;10361900;28;20081;-51
2021/01/09 03:17:57;;;;;;;2.58;0.95;;;-0.40;99.90;;;;;;10360759;28;20084;-50
2021/01/09 03:23:18;;;;;;;6.47;1.40;;;-0.50;99.90;;;;;;10362303;28;20204;-51
2021/01/09 03:28:39;;;;;;;3.63;1.80;;;-0.50;99.90;;;;;;10360615;28;20041;-51
2021/01/09 03:34:00;;;;;;;3.97;1.73;;;-0.50;99.90;;;;;;10360473;28;20058;-51
2021/01/09 03:39:21;;;;;;;3.90;1.40;;;-0.50;99.90;;;;;;10359842;28;20674;-51
2021/01/09 03:44:42;;;;;;;2.75;1.17;;;-0.60;99.90;;;;;;10360668;28;20045;-51
2021/01/09 03:50:05;;;;;;;5.13;1.65;;;-0.60;99.90;;;;;;10358814;28;25122;-51
2021/01/09 03:55:25;;;;;;;2.60;1.27;;;-0.60;99.90;;;;;;10358513;28;20065;-51
2021/01/09 04:00:46;;;;;;;3.65;1.30;;;-0.60;99.90;;;;;;10358988;28;20045;-51
2021/01/09 04:06:08;;;;;;;2.15;1.17;;;-0.60;99.90;;;;;;10361114;28;20048;-51
2021/01/09 04:11:28;;;;;;;2.88;1.67;;;-0.50;99.90;;;;;;10365729;28;20037;-51
2021/01/09 04:16:49;;;;;;;5.68;1.77;;;-0.60;99.90;;;;;;10367849;28;20084;-51
2021/01/09 04:22:10;;;;;;;4.68;2.30;;;-0.50;99.90;;;;;;10363705;28;20100;-51
2021/01/09 04:27:31;;;;;;;2.65;1.00;;;-0.50;99.90;;;;;;10365467;28;20041;-51
2021/01/09 04:32:52;;;;;;;4.60;2.30;;;-0.60;99.90;;;;;;10364808;28;20042;-51
2021/01/09 04:38:15;;;;;;;6.47;1.55;;;-0.50;99.90;;;;;;10363091;28;20057;-50
2021/01/09 04:43:36;;;;;;;5.40;1.70;;;-0.50;99.90;;;;;;10365710;28;20386;-51
2021/01/09 04:48:57;;;;;;;4.97;1.27;;;-0.50;99.90;;;;;;10367644;28;20048;-51
2021/01/09 04:54:21;;;;;;;2.13;0.88;;;-0.60;99.90;;;;;;10367047;28;20052;-50
2021/01/09 04:59:43;;;;;;;1.95;1.30;;;-0.60;99.90;;;;;;10364690;28;20494;-51
2021/01/09 05:05:06;;;;;;;3.75;1.15;;;-0.60;99.90;;;;;;10362451;28;20119;-50
2021/01/09 05:10:34;;;;;;;2.10;1.10;;;-0.60;99.90;;;;;;10363853;28;20045;-50
2021/01/09 05:15:55;;;;;;;1.50;0.93;;;-0.70;99.90;;;;;;10365834;28;20057;-50
2021/01/09 05:21:17;;;;;;;3.45;1.25;;;-0.70;99.90;;;;;;10367240;28;20103;-50
2021/01/09 05:26:40;;;;;;;7.85;2.47;;;-0.70;99.90;;;;;;10366434;28;20038;-50
2021/01/09 05:32:05;;;;;;;2.55;0.88;;;-0.70;99.90;;;;;;10361021;28;22561;-50
2021/01/09 05:37:26;;;;;;;1.75;0.63;;;-0.80;99.90;;;;;;10358934;28;20656;-51
2021/01/09 05:42:49;;;;;;;2.58;1.17;;;-0.80;99.90;;;;;;10362404;28;20049;-50
2021/01/09 05:48:11;;;;;;;2.50;0.75;;;-0.80;99.90;;;;;;10362868;28;20254;-50
2021/01/09 05:53:36;;;;;;;2.05;1.05;;;-0.80;99.90;;;;;;10363431;28;20046;-51
2021/01/09 05:58:57;;;;;;;15.40;2.13;;;-0.80;99.90;;;;;;10359704;28;20108;-50
2021/01/09 06:04:22;;;;;;;2.25;1.05;;;-0.80;99.90;;;;;;10360767;28;20119;-50
2021/01/09 06:10:07;;;;;;;3.85;2.03;;;-0.80;99.90;;;;;;10361927;28;20507;-51
2021/01/09 06:15:30;;;;;;;3.70;1.25;;;-0.80;99.90;;;;;;10361301;28;20042;-51
2021/01/09 06:20:53;;;;;;;9.02;1.75;;;-0.80;99.90;;;;;;10361464;28;20045;-50
2021/01/09 06:26:15;;;;;;;4.55;1.20;;;-0.80;99.90;;;;;;10366792;28;20026;-50
2021/01/09 06:31:39;;;;;;;0.95;0.63;;;-0.80;99.90;;;;;;10360546;28;20182;-50
2021/01/09 06:37:03;;;;;;;0.77;0.45;;;-0.80;99.90;;;;;;10360567;28;20053;-50
2021/01/09 06:42:24;;;;;;;2.17;0.95;;;-0.70;99.90;;;;;;10361048;28;20110;-50
2021/01/09 06:48:01;;;;;;;1.05;0.60;;;-0.80;99.90;;;;;;10358356;28;20087;-50
2021/01/09 06:53:22;;;;;;;3.13;0.80;;;-0.80;99.90;;;;;;10361885;28;20052;-51
2021/01/09 06:58:51;;;;;;;1.25;0.70;;;-0.80;99.90;;;;;;10359870;28;20069;-50
2021/01/09 07:04:51;;;;;;;1.20;0.50;;;-0.80;99.90;;;;;;10357893;28;20037;-50
2021/01/09 07:10:28;;;;;;;1.30;0.80;;;-0.80;99.90;;;;;;10370802;28;20045;-50
2021/01/09 07:16:09;;;;;;;1.63;0.95;;;-0.80;99.90;;;;;;10357083;28;20080;-50
2021/01/09 07:21:37;;;;;;;1.20;0.77;;;-0.90;99.90;;;;;;10356279;28;20079;-50
2021/01/09 07:27:00;;;;;;;6.32;1.20;;;-0.90;99.90;;;;;;10352504;28;20084;-50
2021/01/09 07:32:57;;;;;;;1.00;0.40;;;-0.90;99.90;;;;;;10350548;28;20072;-50
2021/01/09 07:38:20;;;;;;;2.22;0.60;;;-0.90;99.90;;;;;;10342662;28;20057;-50
2021/01/09 07:43:47;;;;;;;2.28;0.55;;;-0.90;99.90;;;;;;10362492;28;20112;-50
2021/01/09 07:49:30;;;;;;;1.35;0.90;;;-0.90;99.90;;;;;;10360241;28;20068;-51
2021/01/09 07:54:55;;;;;;;2.90;1.25;;;-0.90;99.90;;;;;;10359492;28;20069;-51
2021/01/09 08:00:16;;;;;;;4.95;0.77;;;-0.90;99.90;;;;;;10361527;28;20466;-50
2021/01/09 08:05:37;;;;;;;4.55;2.15;;;-0.90;99.90;;;;;;10359793;28;20156;-50
2021/01/09 08:11:04;;;;;;;1.40;0.73;;;-0.90;99.90;;;;;;10362051;28;20445;-50
2021/01/09 08:16:25;;;;;;;2.17;0.60;;;-0.80;99.90;;;;;;10363806;28;20034;-50
2021/01/09 08:21:53;;;;;;;2.03;0.98;;;-0.70;99.90;;;;;;10364410;28;20108;-50
2021/01/09 08:27:19;;;;;;;3.70;0.82;;;-0.60;99.90;;;;;;10366821;28;20034;-50
2021/01/09 08:32:41;;;;;;;2.53;1.38;;;-0.60;99.90;;;;;;10370417;28;20095;-53
2021/01/09 08:38:02;;;;;;;1.17;0.93;;;-0.40;99.90;;;;;;10362748;28;20050;-53
2021/01/09 08:43:25;;;;;;;2.28;1.30;;;-0.20;99.90;;;;;;10368469;28;20082;-53
2021/01/09 08:48:46;;;;;;;1.48;0.98;;;-0.10;99.90;;;;;;10364558;28;20063;-50
2021/01/09 08:54:07;;;;;;;1.40;0.85;;;0.00;99.90;;;;;;10379496;28;20123;-53
2021/01/09 08:59:29;;;;;;;4.15;1.77;;;0.10;99.90;;;;;;10365901;28;20048;-53
2021/01/09 09:04:52;;;;;;;1.90;1.08;;;0.20;99.90;;;;;;10365951;28;20050;-50
2021/01/09 09:10:14;;;;;;;4.68;1.58;;;0.40;99.90;;;;;;10366176;28;20421;-50
2021/01/09 09:15:35;;;;;;;5.20;3.50;;;0.50;99.90;;;;;;10383106;28;20120;-50
2021/01/09 09:20:56;;;;;;;1.95;0.95;;;0.60;99.90;;;;;;10364256;28;20038;-50
2021/01/09 09:26:17;;;;;;;4.95;2.13;;;0.70;99.90;;;;;;10370353;28;20042;-51
2021/01/09 09:31:40;;;;;;;4.72;1.63;;;0.80;99.90;;;;;;10376203;28;20121;-50
2021/01/09 09:37:01;;;;;;;2.53;1.50;;;0.80;99.90;;;;;;10367558;28;20050;-51
2021/01/09 09:42:26;;;;;;;2.33;1.05;;;0.90;99.90;;;;;;10367267;28;20042;-51
2021/01/09 09:47:48;;;;;;;3.03;1.73;;;1.10;99.90;;;;;;10370078;28;20651;-51
2021/01/09 09:53:09;;;;;;;5.30;1.90;;;1.40;99.90;;;;;;10370118;28;20108;-51
2021/01/09 09:58:30;;;;;;;3.75;1.55;;;1.60;99.90;;;;;;10365810;28;20061;-51
2021/01/09 10:03:51;;;;;;;3.05;1.25;;;1.80;99.90;;;;;;10362068;28;20041;-51
2021/01/09 10:09:15;;;;;;;2.53;1.25;;;1.90;99.90;;;;;;10364671;28;20632;-51
2021/01/09 10:14:37;;;;;;;3.00;1.40;;;2.10;99.90;;;;;;10363934;28;20034;-51
2021/01/09 10:19:58;;;;;;;5.78;2.30;;;2.30;99.90;;;;;;10365361;28;20116;-51
2021/01/09 10:25:19;;;;;;;5.40;2.40;;;2.70;99.90;;;;;;10368040;28;20613;-51
2021/01/09 10:30:40;;;;;;;3.80;1.38;;;3.40;99.90;;;;;;10362136;28;20042;-51
2021/01/09 10:36:01;;;;;;;4.75;1.92;;;3.90;99.90;;;;;;10373675;28;20227;-52
2021/01/09 10:41:23;;;;;;;7.80;2.72;;;4.40;99.90;;;;;;10362686;28;20061;-52
2021/01/09 10:46:44;;;;;;;9.77;2.75;;;5.10;99.90;;;;;;10363153;28;20477;-52
2021/01/09 10:52:05;;;;;;;4.53;1.90;;;5.60;99.90;;;;;;10360331;28;20056;-52
2021/01/09 10:57:26;;;;;;;3.15;1.65;;;6.10;99.90;;;;;;10363138;28;20433;-52
2021/01/09 11:02:47;;;;;;;5.72;1.40;;;6.90;99.90;;;;;;10363901;28;20092;-52
2021/01/09 11:08:08;;;;;;;3.38;1.70;;;7.60;99.90;;;;;;10359772;28;20382;-52
2021/01/09 11:13:29;;;;;;;3.80;1.05;;;7.90;99.90;;;;;;10365150;28;20486;-52
2021/01/09 11:18:51;;;;;;;5.95;1.77;;;8.30;99.90;;;;;;10360721;28;20514;-52
2021/01/09 11:24:12;;;;;;;2.53;1.02;;;8.90;99.90;;;;;;10363167;28;20064;-51
2021/01/09 11:29:33;;;;;;;2.72;0.75;;;9.40;99.90;;;;;;10361360;28;20045;-52
2021/01/09 11:34:54;;;;;;;2.50;1.55;;;9.20;99.90;;;;;;10358632;28;20046;-52
2021/01/09 11:40:15;;;;;;;1.55;0.75;;;10.30;99.90;;;;;;10359979;28;20041;-53
2021/01/09 11:45:36;;;;;;;2.78;1.15;;;9.70;99.90;;;;;;10360263;28;20138;-53
2021/01/09 11:50:57;;;;;;;1.92;1.30;;;9.00;99.90;;;;;;10356938;28;20644;-54
2021/01/09 11:56:20;;;;;;;2.72;0.52;;;9.80;99.90;;;;;;10362716;28;20046;-54
2021/01/09 12:01:41;;;;;;;3.85;1.63;;;9.80;99.90;;;;;;10370375;28;20042;-54
2021/01/09 12:07:02;;;;;;;5.70;2.20;;;8.70;99.90;;;;;;10357460;28;20046;-53
2021/01/09 12:12:23;;;;;;;3.70;2.05;;;7.50;99.90;;;;;;10359159;28;20045;-53
2021/01/09 12:17:44;;;;;;;7.00;3.05;;;6.70;99.90;;;;;;10358370;28;20629;-53
2021/01/09 12:23:05;;;;;;;3.08;1.83;;;6.60;99.90;;;;;;10361689;28;20045;-53
2021/01/09 12:28:26;;;;;;;1.52;0.45;;;8.90;99.90;;;;;;10365205;28;20046;-53
2021/01/09 12:33:47;;;;;;;8.52;1.30;;;11.30;99.90;;;;;;10362374;28;21068;-53
2021/01/09 12:39:08;;;;;;;3.95;1.58;;;13.20;99.90;;;;;;10363039;28;20041;-53
2021/01/09 12:44:29;;;;;;;7.93;5.05;;;14.20;99.90;;;;;;10364309;28;20075;-53
2021/01/09 12:49:50;;;;;;;18.95;11.82;;;14.70;99.90;;;;;;10361052;28;20045;-53
2021/01/09 12:55:11;;;;;;;8.15;4.45;;;14.50;99.90;;;;;;10361980;28;20073;-54
2021/01/09 13:00:32;;;;;;;5.18;3.35;;;15.00;99.90;;;;;;10362519;28;20030;-54
2021/01/09 13:05:55;;;;;;;5.05;1.50;;;15.60;99.90;;;;;;10361831;28;20100;-54
2021/01/09 13:11:18;;;;;;;2.53;1.27;;;15.80;99.90;;;;;;10362984;28;20038;-55
2021/01/09 13:16:47;;;;;;;2.50;1.23;;;15.60;99.90;;;;;;10360470;28;20041;-54
2021/01/09 13:22:08;;;;;;;2.53;1.60;;;15.80;97.70;;;;;;10363378;28;20049;-54
2021/01/09 13:27:29;;;;;;;3.15;1.50;;;15.60;99.90;;;;;;10361598;28;20046;-55
2021/01/09 13:32:50;;;;;;;1.73;0.50;;;15.40;99.90;;;;;;10365823;28;20053;-55
2021/01/09 13:38:11;;;;;;;3.03;0.70;;;15.50;99.90;;;;;;10360589;28;20037;-55
2021/01/09 13:43:32;;;;;;;3.42;1.25;;;15.10;99.90;;;;;;10363590;28;20381;-55
2021/01/09 13:48:53;;;;;;;1.50;0.40;;;13.40;99.90;;;;;;10360115;28;20034;-54
2021/01/09 13:54:14;;;;;;;1.13;0.13;;;11.60;99.90;;;;;;10359924;28;20111;-54
2021/01/09 13:59:35;;;;;;;1.55;0.32;;;10.80;99.90;;;;;;10359737;28;20059;-54
2021/01/09 14:04:56;;;;;;;1.27;0.50;;;9.70;99.90;;;;;;10363169;28;20041;-54
2021/01/09 14:10:17;;;;;;;2.42;0.32;;;8.90;99.90;;;;;;10364910;28;20069;-54
2021/01/09 14:15:38;;;;;;;0.85;0.20;;;8.40;99.90;;;;;;10363269;28;20041;-54
2021/01/09 14:21:00;;;;;;;1.60;0.20;;;7.80;99.90;;;;;;10365941;28;20403;-54
2021/01/09 14:26:27;;;;;;;0.40;0.20;;;7.40;99.90;;;;;;10363857;28;20458;-54
2021/01/09 14:31:56;;;;;;;0.38;0.10;;;7.30;99.90;;;;;;10363019;28;20132;-54
2021/01/09 14:37:17;;;;;;;2.42;0.65;;;7.40;99.90;;;;;;10357669;28;20791;-54
2021/01/09 14:42:38;;;;;;;0.68;0.20;;;7.70;99.90;;;;;;10362393;28;20040;-54
2021/01/09 14:47:59;;;;;;;2.17;0.38;;;7.70;99.90;;;;;;10360478;28;20042;-54
2021/01/09 14:53:20;;;;;;;1.90;0.60;;;7.70;99.90;;;;;;10361849;28;20041;-54
2021/01/09 14:58:41;;;;;;;1.25;0.52;;;7.20;99.90;;;;;;10360568;28;20125;-54
2021/01/09 15:04:02;;;;;;;8.23;1.60;;;6.70;99.90;;;;;;10358800;28;20057;-54
2021/01/09 15:09:23;;;;;;;3.08;1.83;;;6.30;99.90;;;;;;10360704;28;20044;-54
2021/01/09 15:14:44;;;;;;;4.55;1.38;;;6.10;99.90;;;;;;10359213;28;20042;-54
2021/01/09 15:20:06;;;;;;;0.85;0.20;;;5.80;99.90;;;;;;10354275;28;20983;-54
2021/01/09 15:25:27;;;;;;;0.43;0.10;;;5.70;99.90;;;;;;10361448;28;20193;-54
2021/01/09 15:30:48;;;;;;;0.20;0.15;;;5.60;99.90;;;;;;10363475;28;20052;-54
2021/01/09 15:36:09;;;;;;;0.43;0.20;;;5.60;99.90;;;;;;10357700;28;20242;-54
2021/01/09 15:41:30;;;;;;;4.32;2.10;;;5.40;99.90;;;;;;10358365;28;20038;-54
2021/01/09 15:46:52;;;;;;;1.00;0.30;;;5.10;99.90;;;;;;10354266;28;20034;-54
2021/01/09 15:52:13;;;;;;;1.00;0.30;;;4.90;99.90;;;;;;10353542;28;20049;-54
2021/01/09 15:57:34;;;;;;;1.42;0.20;;;4.70;99.90;;;;;;10356365;28;20041;-54
2021/01/09 16:02:55;;;;;;;0.57;0.28;;;4.50;99.90;;;;;;10363612;28;20045;-54
2021/01/09 16:08:15;;;;;;;3.15;0.25;;;4.40;99.90;;;;;;10360126;28;20099;-54
2021/01/09 16:13:37;;;;;;;1.13;0.70;;;4.30;99.90;;;;;;10362256;28;20051;-54
2021/01/09 16:18:59;;;;;;;1.25;0.40;;;4.00;99.90;;;;;;10357776;28;20050;-54
2021/01/09 16:24:20;;;;;;;0.25;0.10;;;3.90;99.90;;;;;;10365309;28;20038;-54
2021/01/09 16:29:41;;;;;;;1.90;0.38;;;3.80;99.90;;;;;;10362874;28;20038;-54
2021/01/09 16:35:02;;;;;;;1.55;0.20;;;3.60;99.90;;;;;;10362122;28;20045;-54
2021/01/09 16:40:24;;;;;;;0.38;0.10;;;3.50;99.90;;;;;;10362876;28;20091;-54
2021/01/09 16:45:45;;;;;;;0.60;0.35;;;3.40;99.90;;;;;;10361293;28;20099;-54
2021/01/09 16:51:06;;;;;;;1.30;0.50;;;3.20;99.90;;;;;;10362155;28;20049;-54
2021/01/09 16:56:37;;;;;;;1.80;0.50;;;3.10;99.90;;;;;;10361723;28;20201;-54
2021/01/09 17:01:58;;;;;;;5.88;1.15;;;3.00;99.90;;;;;;10358487;28;20026;-54
2021/01/09 17:07:19;;;;;;;1.83;0.75;;;3.00;99.90;;;;;;10362791;28;20424;-54
2021/01/09 17:12:40;;;;;;;4.28;1.23;;;2.90;99.90;;;;;;10362694;28;20048;-54
2021/01/09 17:18:01;;;;;;;3.65;1.15;;;2.80;99.90;;;;;;10355086;28;20509;-54
2021/01/09 17:23:22;;;;;;;2.55;0.93;;;2.70;99.90;;;;;;10350233;28;20083;-54
2021/01/09 17:28:43;;;;;;;4.03;0.73;;;2.70;99.90;;;;;;10348080;28;20049;-54
2021/01/09 17:34:04;;;;;;;2.83;1.33;;;2.60;99.90;;;;;;10351509;28;20446;-54
2021/01/09 17:39:27;;;;;;;5.28;1.50;;;2.60;99.90;;;;;;10361752;28;20067;-54
2021/01/09 17:44:48;;;;;;;3.65;1.48;;;2.40;99.90;;;;;;10352116;28;20116;-54
2021/01/09 17:50:10;;;;;;;4.15;1.42;;;2.30;99.90;;;;;;10364161;28;20053;-54
2021/01/09 17:55:31;;;;;;;5.00;2.15;;;2.20;99.90;;;;;;10350628;28;20030;-54
2021/01/09 18:00:52;;;;;;;3.95;1.70;;;2.10;99.90;;;;;;10363953;28;20041;-54
2021/01/09 18:06:18;;;;;;;2.05;1.10;;;2.10;99.90;;;;;;10350027;28;20176;-54
2021/01/09 18:11:40;;;;;;;4.25;1.63;;;2.00;99.90;;;;;;10352770;28;20056;-54
2021/01/09 18:17:01;;;;;;;2.90;1.10;;;1.90;99.90;;;;;;10348674;28;20056;-54
2021/01/09 18:22:22;;;;;;;4.47;2.00;;;1.90;99.90;;;;;;10352956;28;20038;-54
2021/01/09 18:27:43;;;;;;;3.80;1.90;;;1.80;99.90;;;;;;10357429;28;20436;-54
2021/01/09 18:33:05;;;;;;;8.63;1.30;;;1.80;99.90;;;;;;10354627;28;20095;-54
2021/01/09 18:38:26;;;;;;;16.33;3.72;;;1.70;99.90;;;;;;10351335;28;20057;-54
2021/01/09 18:43:47;;;;;;;6.40;3.10;;;1.70;99.90;;;;;;10354814;28;20037;-54
2021/01/09 18:49:08;;;;;;;5.03;2.42;;;1.70;99.90;;;;;;10353142;28;20048;-54
2021/01/09 18:54:29;;;;;;;5.18;2.60;;;1.60;99.90;;;;;;10352476;28;20034;-53
2021/01/09 18:59:49;;;;;;;6.60;2.72;;;1.50;99.90;;;;;;10353908;28;20041;-53
2021/01/09 19:05:11;;;;;;;5.45;2.83;;;1.60;99.90;;;;;;10355997;28;20041;-54
2021/01/09 19:10:32;;;;;;;4.20;1.83;;;1.60;99.90;;;;;;10351660;28;20037;-54
2021/01/09 19:15:53;;;;;;;5.30;3.47;;;1.50;99.90;;;;;;10353490;28;20036;-54
2021/01/09 19:21:14;;;;;;;4.97;2.38;;;1.50;99.90;;;;;;10352699;28;20458;-54
2021/01/09 19:26:38;;;;;;;2.72;1.52;;;1.40;99.90;;;;;;10352727;28;20037;-54
2021/01/09 19:31:59;;;;;;;11.10;3.05;;;1.40;99.90;;;;;;10356048;28;20494;-53
2021/01/09 19:37:20;;;;;;;3.25;1.73;;;1.30;99.90;;;;;;10362241;28;20175;-54
2021/01/09 19:42:43;;;;;;;4.57;1.55;;;1.30;99.90;;;;;;10366011;28;20045;-53
2021/01/09 19:48:05;;;;;;;3.42;1.88;;;1.30;99.90;;;;;;10362795;28;20056;-53
2021/01/09 19:53:26;;;;;;;6.07;2.33;;;1.20;99.90;;;;;;10363742;28;20106;-53
2021/01/09 19:58:47;;;;;;;3.03;1.20;;;1.20;99.90;;;;;;10368206;28;20121;-54
2021/01/09 20:04:08;;;;;;;7.32;2.63;;;1.10;99.90;;;;;;10367830;28;20402;-53
2021/01/09 20:09:32;;;;;;;3.75;2.20;;;1.10;99.90;;;;;;10366798;28;20100;-53
2021/01/09 20:14:52;;;;;;;12.23;2.42;;;1.10;99.90;;;;;;10366331;28;20504;-54
2021/01/09 20:20:15;;;;;;;4.50;3.63;;;0.90;99.90;;;;;;10367935;28;20516;-53
2021/01/09 20:25:36;;;;;;;5.50;2.10;;;0.90;99.90;;;;;;10365471;28;20069;-53
2021/01/09 20:30:58;;;;;;;5.85;2.83;;;0.90;99.90;;;;;;10363517;28;20039;-53
2021/01/09 20:36:19;;;;;;;7.80;2.35;;;0.80;99.90;;;;;;10362613;28;20351;-53
2021/01/09 20:41:41;;;;;;;6.00;2.80;;;0.80;99.90;;;;;;10365604;28;20048;-53
2021/01/09 20:47:03;;;;;;;5.85;2.30;;;0.70;99.90;;;;;;10355783;28;20030;-54
2021/01/09 20:52:24;;;;;;;4.95;3.00;;;0.70;99.90;;;;;;10353194;28;20038;-53
2021/01/09 20:57:45;;;;;;;11.13;2.67;;;0.70;99.90;;;;;;10356558;28;20041;-53
2021/01/09 21:03:06;;;;;;;9.65;3.85;;;0.70;99.90;;;;;;10355996;28;20042;-53
2021/01/09 21:08:27;;;;;;;11.02;5.13;;;0.70;99.90;;;;;;10352256;28;20222;-53
2021/01/09 21:13:48;;;;;;;4.65;3.00;;;0.70;99.90;;;;;;10350364;28;20157;-53
2021/01/09 21:19:09;;;;;;;7.85;3.58;;;0.70;99.90;;;;;;10351478;28;20044;-53
2021/01/09 21:24:31;;;;;;;4.88;2.92;;;0.70;99.90;;;;;;10351963;28;20096;-53
2021/01/09 21:29:51;;;;;;;8.23;3.35;;;0.60;99.90;;;;;;10350374;28;20038;-53
2021/01/09 21:35:17;;;;;;;12.88;4.50;;;0.60;99.90;;;;;;10349789;28;20050;-53
2021/01/09 21:40:38;;;;;;;7.00;3.45;;;0.60;99.90;;;;;;10351124;28;20067;-53
2021/01/09 21:45:59;;;;;;;9.93;3.15;;;0.60;99.90;;;;;;10349783;28;20046;-53
2021/01/09 21:51:20;;;;;;;10.60;3.72;;;0.60;99.90;;;;;;10351317;28;20071;-53
2021/01/09 21:56:42;;;;;;;12.40;2.85;;;0.60;99.90;;;;;;10353607;28;20038;-53
2021/01/09 22:02:03;;;;;;;9.05;2.40;;;0.50;99.90;;;;;;10350222;28;20119;-53
2021/01/09 22:07:24;;;;;;;8.82;3.58;;;0.50;99.90;;;;;;10366484;28;20033;-53
2021/01/09 22:12:49;;;;;;;3.22;2.00;;;0.50;99.90;;;;;;10356512;28;20049;-53
2021/01/09 22:18:10;;;;;;;5.72;2.42;;;0.40;99.90;;;;;;10359025;28;20045;-53
2021/01/09 22:23:31;;;;;;;6.97;3.15;;;0.40;99.90;;;;;;10356409;28;20360;-53
2021/01/09 22:28:52;;;;;;;7.85;3.40;;;0.50;99.90;;;;;;10352998;28;20052;-53
2021/01/09 22:34:19;;;;;;;6.97;2.95;;;0.50;99.90;;;;;;10353967;28;20497;-53
2021/01/09 22:39:40;;;;;;;5.75;3.33;;;0.50;99.90;;;;;;10353556;28;21002;-53
2021/01/09 22:45:02;;;;;;;7.32;2.40;;;0.50;99.90;;;;;;10351686;28;20087;-53
2021/01/09 22:50:22;;;;;;;7.88;2.35;;;0.50;99.90;;;;;;10351345;28;20038;-53
2021/01/09 22:55:44;;;;;;;10.30;3.28;;;0.50;99.90;;;;;;10355375;28;20116;-53
2021/01/09 23:01:06;;;;;;;7.90;3.28;;;0.40;99.90;;;;;;10354415;28;20041;-53
2021/01/09 23:06:27;;;;;;;6.68;2.42;;;0.40;99.90;;;;;;10354309;28;20100;-53
2021/01/09 23:11:48;;;;;;;12.60;3.60;;;0.40;99.90;;;;;;10350104;28;20124;-53
2021/01/09 23:17:08;;;;;;;6.55;3.33;;;0.40;99.90;;;;;;10362961;28;20033;-53
2021/01/09 23:22:29;;;;;;;6.50;3.00;;;0.40;99.90;;;;;;10353512;28;20056;-53
2021/01/09 23:27:51;;;;;;;6.85;2.60;;;0.50;99.90;;;;;;10347723;28;20037;-53
2021/01/09 23:33:12;;;;;;;4.68;2.58;;;0.50;99.90;;;;;;10351252;28;20585;-53
2021/01/09 23:38:33;;;;;;;11.73;3.03;;;0.40;99.90;;;;;;10363310;28;20408;-53
2021/01/09 23:43:54;;;;;;;6.60;2.50;;;0.40;99.90;;;;;;10358682;28;20034;-53
2021/01/09 23:49:15;;;;;;;4.95;2.67;;;0.30;99.90;;;;;;10361113;28;20164;-53
2021/01/09 23:54:36;;;;;;;5.07;2.65;;;0.30;99.90;;;;;;10366954;28;20524;-53
2021/01/09 23:59:57;;;;;;;6.40;2.83;;;0.20;99.90;;;;;;10361255;28;20887;-53
